Time;durP1;ratioP1;P1;durP2;ratioP2;P2;SDS_P1;SDS_P2;PMS_P1;PMS_P2;Temp;Humidity;BMP_temperature;BMP_pressure;BME280_temperature;BME280_humidity;BME280_pressure;Samples;Min_cycle;Max_cycle;Signal;HPM_P1;HPM_P2
2021/08/16 00:01:58;;;;;;;;;;;21.40;75.90;;;;;;4361043;32;44153;-86
2021/08/16 00:04:28;;;;;;;;;;;21.30;75.90;;;;;;4372480;32;44385;-86
2021/08/16 00:06:55;;;;;;;;;;;21.30;76.00;;;;;;4347504;32;42434;-84
2021/08/16 00:09:22;;;;;;;;;;;21.30;75.90;;;;;;4347460;32;44799;-85
2021/08/16 00:11:55;;;;;;;;;;;21.20;76.10;;;;;;4372762;32;20137;-88
2021/08/16 00:14:23;;;;;;;;;;;21.20;76.10;;;;;;4361205;32;44213;-87
2021/08/16 00:16:57;;;;;;;;;;;21.20;76.20;;;;;;4360781;32;45797;-86
2021/08/16 00:19:30;;;;;;;;;;;21.20;76.00;;;;;;4360594;32;44146;-87
2021/08/16 00:22:00;;;;;;;;;;;21.10;75.70;;;;;;4361319;32;44232;-78
2021/08/16 00:24:33;;;;;;;;;;;21.10;75.70;;;;;;4360650;32;43502;-84
2021/08/16 00:27:03;;;;;;;;;;;21.10;75.50;;;;;;4372526;32;44748;-83
2021/08/16 00:29:30;;;;;;;;;;;21.10;75.70;;;;;;4360567;32;44260;-86
2021/08/16 00:32:03;;;;;;;;;;;21.10;75.80;;;;;;4372237;32;44254;-85
2021/08/16 00:34:30;;;;;;;;;;;21.00;76.10;;;;;;4361065;32;42983;-85
2021/08/16 00:36:59;;;;;;;;;;;21.00;76.10;;;;;;4347663;32;44970;-88
2021/08/16 00:39:32;;;;;;;;;;;21.00;76.00;;;;;;4372211;32;43258;-85
2021/08/16 00:42:09;;;;;;;;;;;20.90;76.10;;;;;;4361853;32;19997;-86
2021/08/16 00:44:42;;;;;;;;;;;20.90;76.00;;;;;;4360843;32;44861;-83
2021/08/16 00:47:09;;;;;;;;;;;20.90;75.80;;;;;;4360807;32;44153;-85
2021/08/16 00:49:42;;;;;;;;;;;20.90;76.00;;;;;;4372147;32;43482;-87
2021/08/16 00:52:14;;;;;;;;;;;20.90;75.90;;;;;;4346911;32;44155;-86
2021/08/16 00:54:44;;;;;;;;;;;20.80;75.90;;;;;;4372334;32;43343;-85
2021/08/16 00:57:22;;;;;;;;;;;20.80;76.00;;;;;;4372021;32;42935;-86
2021/08/16 00:59:52;;;;;;;;;;;20.80;75.60;;;;;;4372047;32;45743;-85
2021/08/16 01:02:23;;;;;;;;;;;20.80;75.80;;;;;;4371142;32;43911;-86
2021/08/16 01:04:52;;;;;;;;;;;20.80;75.70;;;;;;4360210;32;42753;-85
2021/08/16 01:07:24;;;;;;;;;;;20.80;75.70;;;;;;4371455;32;43478;-85
2021/08/16 01:09:54;;;;;;;;;;;20.80;75.70;;;;;;4347149;32;44899;-86
2021/08/16 01:12:25;;;;;;;;;;;20.80;75.50;;;;;;4372367;32;20001;-85
2021/08/16 01:14:52;;;;;;;;;;;20.70;75.50;;;;;;4360339;32;42934;-79
2021/08/16 01:17:19;;;;;;;;;;;20.70;75.70;;;;;;4360599;32;42838;-86
2021/08/16 01:19:54;;;;;;;;;;;20.70;75.60;;;;;;4370849;32;44015;-86
2021/08/16 01:22:25;;;;;;;;;;;20.70;75.80;;;;;;4347071;32;45840;-87
2021/08/16 01:24:59;;;;;;;;;;;20.70;75.80;;;;;;4371562;32;43994;-82
2021/08/16 01:27:26;;;;;;;;;;;20.70;75.70;;;;;;4360776;32;43313;-88
2021/08/16 01:29:54;;;;;;;;;;;20.70;75.80;;;;;;4370977;32;42809;-83
2021/08/16 01:32:26;;;;;;;;;;;20.60;76.10;;;;;;4346974;32;43983;-87
2021/08/16 01:34:53;;;;;;;;;;;20.60;76.00;;;;;;4371536;32;43116;-87
2021/08/16 01:37:23;;;;;;;;;;;20.60;75.90;;;;;;4359952;32;44243;-87
2021/08/16 01:39:53;;;;;;;;;;;20.60;76.20;;;;;;4346536;32;45031;-88
2021/08/16 01:42:20;;;;;;;;;;;20.50;76.00;;;;;;4372130;32;20020;-87
2021/08/16 01:44:55;;;;;;;;;;;20.50;76.30;;;;;;4370860;32;45718;-86
2021/08/16 01:47:22;;;;;;;;;;;20.50;76.30;;;;;;4371339;32;43551;-87
2021/08/16 01:49:52;;;;;;;;;;;20.50;76.40;;;;;;4346337;33;44438;-80
2021/08/16 01:52:22;;;;;;;;;;;20.50;76.50;;;;;;4359869;33;44053;-88
2021/08/16 01:54:52;;;;;;;;;;;20.40;76.50;;;;;;4360333;33;44011;-83
2021/08/16 01:57:19;;;;;;;;;;;20.40;76.80;;;;;;4371201;32;43033;-87
2021/08/16 01:59:51;;;;;;;;;;;20.40;76.80;;;;;;4346120;33;43974;-87
2021/08/16 02:02:21;;;;;;;;;;;20.40;76.70;;;;;;4359678;33;44673;-87
2021/08/16 02:04:49;;;;;;;;;;;20.40;76.90;;;;;;4370796;32;45209;-81
2021/08/16 02:07:16;;;;;;;;;;;20.40;76.90;;;;;;4346486;33;43357;-80
2021/08/16 02:09:43;;;;;;;;;;;20.40;76.90;;;;;;4370798;32;44596;-86
2021/08/16 02:12:12;;;;;;;;;;;20.40;76.90;;;;;;4371101;32;44900;-86
2021/08/16 02:14:44;;;;;;;;;;;20.30;76.90;;;;;;4371738;32;20001;-86
2021/08/16 02:17:14;;;;;;;;;;;20.30;76.80;;;;;;4359543;33;42750;-83
2021/08/16 02:19:41;;;;;;;;;;;20.30;77.00;;;;;;4370917;32;43642;-85
2021/08/16 02:22:11;;;;;;;;;;;20.20;77.20;;;;;;4359886;33;45648;-84
2021/08/16 02:24:38;;;;;;;;;;;20.20;77.20;;;;;;4359811;33;42733;-82
2021/08/16 02:27:13;;;;;;;;;;;20.20;77.40;;;;;;4359347;33;43044;-86
2021/08/16 02:29:40;;;;;;;;;;;20.20;77.60;;;;;;4360169;33;45870;-87
2021/08/16 02:32:10;;;;;;;;;;;20.20;77.60;;;;;;4370646;32;43433;-85
2021/08/16 02:34:38;;;;;;;;;;;20.20;77.50;;;;;;4360147;33;43864;-88
2021/08/16 02:37:16;;;;;;;;;;;20.10;77.60;;;;;;4370657;32;44920;-87
2021/08/16 02:39:43;;;;;;;;;;;20.20;78.00;;;;;;4346336;33;43816;-87
2021/08/16 02:42:15;;;;;;;;;;;20.10;78.00;;;;;;4361116;32;44241;-84
2021/08/16 02:44:51;;;;;;;;;;;20.10;78.10;;;;;;4374640;32;19997;-80
2021/08/16 02:47:23;;;;;;;;;;;20.10;78.20;;;;;;4373933;32;44043;-88
2021/08/16 02:49:53;;;;;;;;;;;20.10;78.30;;;;;;4362071;32;44404;-80
2021/08/16 02:52:20;;;;;;;;;;;20.10;78.30;;;;;;4349167;32;44210;-86
2021/08/16 02:54:51;;;;;;;;;;;20.00;78.50;;;;;;4373343;32;43639;-88
2021/08/16 02:57:21;;;;;;;;;;;20.00;78.70;;;;;;4348879;32;44196;-81
2021/08/16 02:59:53;;;;;;;;;;;20.00;78.90;;;;;;4361925;32;43299;-80
2021/08/16 03:02:22;;;;;;;;;;;20.00;79.00;;;;;;4361865;32;45173;-80
2021/08/16 03:04:50;;;;;;;;;;;19.90;79.10;;;;;;4362171;32;44984;-88
2021/08/16 03:07:19;;;;;;;;;;;19.90;79.30;;;;;;4362095;32;45922;-88
2021/08/16 03:09:49;;;;;;;;;;;19.90;79.40;;;;;;4373056;32;44787;-81
2021/08/16 03:12:20;;;;;;;;;;;19.90;79.50;;;;;;4348770;32;42938;-84
2021/08/16 03:14:50;;;;;;;;;;;19.90;79.70;;;;;;4362595;32;20001;-83
2021/08/16 03:17:17;;;;;;;;;;;19.90;79.80;;;;;;4348337;32;44146;-87
2021/08/16 03:19:44;;;;;;;;;;;19.90;79.90;;;;;;4372911;32;44329;-81
2021/08/16 03:22:11;;;;;;;;;;;19.90;80.10;;;;;;4361539;32;43267;-82
2021/08/16 03:24:41;;;;;;;;;;;19.80;80.20;;;;;;4361727;32;43277;-85
2021/08/16 03:27:08;;;;;;;;;;;19.80;80.40;;;;;;4361930;32;45686;-87
2021/08/16 03:29:36;;;;;;;;;;;19.80;80.30;;;;;;4373131;32;42498;-84
2021/08/16 03:32:09;;;;;;;;;;;19.80;80.50;;;;;;4348124;32;44205;-83
2021/08/16 03:34:39;;;;;;;;;;;19.80;80.50;;;;;;4362193;32;43684;-82
2021/08/16 03:37:08;;;;;;;;;;;19.80;80.60;;;;;;4372787;32;44196;-82
2021/08/16 03:39:36;;;;;;;;;;;19.80;80.70;;;;;;4372815;32;44208;-84
2021/08/16 03:42:06;;;;;;;;;;;19.80;80.90;;;;;;4361710;32;42613;-81
2021/08/16 03:44:35;;;;;;;;;;;19.70;81.00;;;;;;4361240;32;44071;-83
2021/08/16 03:47:06;;;;;;;;;;;19.70;81.20;;;;;;4362433;32;20015;-80
2021/08/16 03:49:36;;;;;;;;;;;19.70;81.30;;;;;;4361390;32;43902;-85
2021/08/16 03:52:03;;;;;;;;;;;19.70;81.50;;;;;;4361324;32;44623;-85
2021/08/16 03:54:36;;;;;;;;;;;19.70;81.60;;;;;;4361092;32;43739;-87
2021/08/16 03:57:05;;;;;;;;;;;19.60;81.50;;;;;;4361533;32;44108;-89
2021/08/16 03:59:35;;;;;;;;;;;19.60;81.60;;;;;;4348332;32;44196;-85
2021/08/16 04:02:05;;;;;;;;;;;19.60;81.70;;;;;;4360851;32;44001;-88
2021/08/16 04:04:32;;;;;;;;;;;19.60;82.00;;;;;;4361187;32;43802;-87
2021/08/16 04:07:02;;;;;;;;;;;19.60;82.10;;;;;;4361247;32;43296;-83
2021/08/16 04:09:29;;;;;;;;;;;19.50;82.90;;;;;;4361290;32;43540;-86
2021/08/16 04:11:56;;;;;;;;;;;19.50;82.30;;;;;;4360927;32;42657;-84
2021/08/16 04:14:26;;;;;;;;;;;19.60;83.20;;;;;;4372160;32;43619;-84
2021/08/16 04:17:01;;;;;;;;;;;19.50;82.60;;;;;;4347609;32;44248;-84
2021/08/16 04:19:31;;;;;;;;;;;19.50;82.70;;;;;;4361346;32;43195;-90
2021/08/16 04:21:58;;;;;;;;;;;19.50;82.90;;;;;;4361141;32;44644;-90
2021/08/16 04:24:28;;;;;;;;;;;19.40;82.80;;;;;;4360712;32;42970;-88
2021/08/16 04:26:55;;;;;;;;;;;19.40;82.90;;;;;;4372161;32;43393;-90
2021/08/16 04:29:28;;;;;;;;;;;19.50;83.10;;;;;;4347490;32;43848;-90
2021/08/16 04:31:57;;;;;;;;;;;19.50;83.30;;;;;;4372314;32;45687;-84
2021/08/16 04:34:25;;;;;;;;;;;19.50;83.30;;;;;;4360882;32;43078;-82
2021/08/16 04:37:00;;;;;;;;;;;19.50;83.30;;;;;;4371716;32;43071;-85
2021/08/16 04:39:27;;;;;;;;;;;19.40;83.30;;;;;;4361189;32;44211;-83
2021/08/16 04:41:54;;;;;;;;;;;19.40;83.50;;;;;;4371791;32;43905;-89
2021/08/16 04:44:24;;;;;;;;;;;19.40;83.60;;;;;;4360370;32;42871;-88
2021/08/16 04:46:53;;;;;;;;;;;19.40;83.70;;;;;;4346854;32;44082;-85
2021/08/16 04:49:20;;;;;;;;;;;19.40;83.90;;;;;;4360422;32;43852;-84
2021/08/16 04:51:50;;;;;;;;;;;19.40;84.10;;;;;;4360827;32;43324;-89
2021/08/16 04:54:17;;;;;;;;;;;19.30;84.00;;;;;;4360264;32;43115;-84
2021/08/16 04:56:44;;;;;;;;;;;19.30;84.10;;;;;;4360509;32;43863;-82
2021/08/16 04:59:11;;;;;;;;;;;19.40;84.30;;;;;;4360168;32;43306;-86
2021/08/16 05:01:41;;;;;;;;;;;19.30;84.20;;;;;;4371154;32;43203;-87
2021/08/16 05:04:09;;;;;;;;;;;19.30;84.30;;;;;;4371713;32;44974;-84
2021/08/16 05:06:44;;;;;;;;;;;19.30;84.30;;;;;;4359854;32;44387;-83
2021/08/16 05:09:17;;;;;;;;;;;19.30;84.50;;;;;;4360468;32;44279;-87
2021/08/16 05:11:44;;;;;;;;;;;19.20;84.60;;;;;;4360543;32;43341;-87
2021/08/16 05:14:15;;;;;;;;;;;19.20;84.70;;;;;;4371586;32;44247;-86
2021/08/16 05:16:43;;;;;;;;;;;19.20;84.80;;;;;;4371743;32;43112;-88
2021/08/16 05:19:11;;;;;;;;;;;19.30;84.90;;;;;;4360677;32;20001;-83
2021/08/16 05:21:44;;;;;;;;;;;19.20;85.00;;;;;;4347644;32;43136;-82
2021/08/16 05:24:11;;;;;;;;;;;19.20;85.10;;;;;;4360376;32;45852;-87
2021/08/16 05:26:39;;;;;;;;;;;19.20;85.20;;;;;;4346888;32;43071;-85
2021/08/16 05:29:09;;;;;;;;;;;19.20;85.20;;;;;;4360422;32;45861;-90
2021/08/16 05:31:43;;;;;;;;;;;19.20;85.30;;;;;;4347254;32;44124;-86
2021/08/16 05:34:10;;;;;;;;;;;19.20;85.50;;;;;;4371572;32;43868;-85
2021/08/16 05:36:43;;;;;;;;;;;19.20;85.50;;;;;;4371386;32;43506;-89
2021/08/16 05:39:12;;;;;;;;;;;19.20;85.70;;;;;;4346378;32;44101;-82
2021/08/16 05:41:44;;;;;;;;;;;19.20;85.60;;;;;;4360159;32;42862;-83
2021/08/16 05:44:14;;;;;;;;;;;19.20;85.80;;;;;;4360238;32;45272;-86
2021/08/16 05:46:47;;;;;;;;;;;19.20;85.80;;;;;;4371442;32;43884;-84
2021/08/16 05:49:14;;;;;;;;;;;19.20;85.90;;;;;;4360891;32;20032;-88
2021/08/16 05:51:46;;;;;;;;;;;19.20;86.00;;;;;;4360037;33;42689;-86
2021/08/16 05:54:16;;;;;;;;;;;19.10;86.20;;;;;;4346506;33;44156;-85
2021/08/16 05:56:46;;;;;;;;;;;19.10;86.30;;;;;;4371543;32;43504;-87
2021/08/16 05:59:13;;;;;;;;;;;19.10;86.40;;;;;;4370956;32;43778;-87
2021/08/16 06:01:43;;;;;;;;;;;19.10;86.50;;;;;;4359593;33;44894;-82
2021/08/16 06:04:22;;;;;;;;;;;19.10;86.50;;;;;;4370530;32;43008;-83
2021/08/16 06:06:57;;;;;;;;;;;19.10;86.60;;;;;;4359936;33;45053;-84
2021/08/16 06:09:29;;;;;;;;;;;19.10;86.70;;;;;;4359793;33;43078;-88
2021/08/16 06:11:59;;;;;;;;;;;19.20;86.80;;;;;;4371164;32;43480;-85
2021/08/16 06:14:28;;;;;;;;;;;19.10;86.70;;;;;;4360046;33;44065;-89
2021/08/16 06:17:03;;;;;;;;;;;19.10;86.80;;;;;;4361284;32;43940;-82
2021/08/16 06:19:36;;;;;;;;;;;19.10;87.00;;;;;;4374842;32;20103;-87
2021/08/16 06:22:06;;;;;;;;;;;19.10;87.00;;;;;;4362478;32;42539;-88
2021/08/16 06:24:35;;;;;;;;;;;19.10;87.00;;;;;;4374374;32;44385;-84
2021/08/16 06:27:03;;;;;;;;;;;19.10;87.10;;;;;;4362286;32;44245;-82
2021/08/16 06:29:35;;;;;;;;;;;19.10;87.20;;;;;;4349343;32;42280;-84
2021/08/16 06:32:08;;;;;;;;;;;19.10;87.40;;;;;;4362743;32;45941;-88
2021/08/16 06:34:39;;;;;;;;;;;19.00;87.50;;;;;;4349493;32;43232;-85
2021/08/16 06:37:12;;;;;;;;;;;19.00;87.60;;;;;;4373237;32;42987;-82
2021/08/16 06:39:44;;;;;;;;;;;19.00;87.80;;;;;;4348841;32;44004;-85
2021/08/16 06:42:17;;;;;;;;;;;19.00;87.80;;;;;;4373670;32;44232;-85
2021/08/16 06:44:49;;;;;;;;;;;19.00;87.80;;;;;;4373508;32;44101;-84
2021/08/16 06:47:16;;;;;;;;;;;19.00;87.90;;;;;;4362740;32;43167;-86
2021/08/16 06:49:44;;;;;;;;;;;19.00;88.00;;;;;;4362395;32;42950;-83
2021/08/16 06:52:15;;;;;;;;;;;19.00;88.10;;;;;;4361992;32;42264;-86
2021/08/16 06:54:43;;;;;;;;;;;19.00;88.20;;;;;;4373717;32;44079;-84
2021/08/16 06:57:18;;;;;;;;;;;19.00;88.30;;;;;;4373442;32;43858;-83
2021/08/16 06:59:45;;;;;;;;;;;19.00;88.40;;;;;;4348918;32;43741;-87
2021/08/16 07:02:15;;;;;;;;;;;19.00;88.50;;;;;;4372794;32;44551;-86
2021/08/16 07:04:45;;;;;;;;;;;19.00;88.60;;;;;;4348820;32;43089;-81
2021/08/16 07:07:12;;;;;;;;;;;19.00;88.70;;;;;;4348789;32;43980;-84
2021/08/16 07:09:39;;;;;;;;;;;19.00;88.70;;;;;;4373712;32;45679;-86
2021/08/16 07:12:12;;;;;;;;;;;19.00;88.70;;;;;;4361839;32;43410;-84
2021/08/16 07:14:41;;;;;;;;;;;19.00;88.80;;;;;;4362142;32;46034;-83
2021/08/16 07:17:09;;;;;;;;;;;19.00;88.90;;;;;;4362206;32;44160;-87
2021/08/16 07:19:39;;;;;;;;;;;19.00;88.90;;;;;;4374259;32;20096;-84
2021/08/16 07:22:16;;;;;;;;;;;18.90;89.00;;;;;;4349049;32;45778;-86
2021/08/16 07:24:43;;;;;;;;;;;18.90;89.00;;;;;;4348852;32;43898;-82
2021/08/16 07:27:16;;;;;;;;;;;19.00;89.20;;;;;;4372683;32;43470;-83
2021/08/16 07:29:43;;;;;;;;;;;19.00;89.10;;;;;;4347802;32;42567;-85
2021/08/16 07:32:13;;;;;;;;;;;19.00;89.20;;;;;;4373060;32;46098;-83
2021/08/16 07:34:40;;;;;;;;;;;19.00;89.30;;;;;;4361480;32;42526;-82
2021/08/16 07:37:12;;;;;;;;;;;19.00;89.30;;;;;;4348453;32;43183;-88
2021/08/16 07:39:40;;;;;;;;;;;19.00;89.30;;;;;;4348447;32;44327;-81
2021/08/16 07:42:10;;;;;;;;;;;19.00;89.20;;;;;;4361347;32;43185;-84
2021/08/16 07:44:46;;;;;;;;;;;19.00;89.30;;;;;;4372507;32;42938;-85
2021/08/16 07:47:15;;;;;;;;;;;19.10;89.40;;;;;;4348399;32;43910;-83
2021/08/16 07:49:45;;;;;;;;;;;19.00;89.40;;;;;;4373232;32;20012;-86
2021/08/16 07:52:12;;;;;;;;;;;19.00;89.40;;;;;;4361384;32;43754;-82
2021/08/16 07:54:44;;;;;;;;;;;19.10;89.40;;;;;;4372322;32;42529;-90
2021/08/16 07:57:11;;;;;;;;;;;19.10;89.40;;;;;;4361560;32;44885;-85
2021/08/16 07:59:41;;;;;;;;;;;19.10;89.30;;;;;;4372744;32;42853;-85
2021/08/16 08:02:08;;;;;;;;;;;19.10;89.30;;;;;;4372061;32;42351;-81
2021/08/16 08:04:35;;;;;;;;;;;19.10;89.30;;;;;;4347808;32;43486;-85
2021/08/16 08:07:08;;;;;;;;;;;19.10;89.30;;;;;;4360895;32;44022;-82
2021/08/16 08:09:38;;;;;;;;;;;19.20;89.40;;;;;;4372547;32;45185;-84
2021/08/16 08:12:11;;;;;;;;;;;19.10;89.40;;;;;;4372444;32;44792;-82
2021/08/16 08:14:54;;;;;;;;;;;19.20;89.50;;;;;;4372554;32;43271;-86
2021/08/16 08:17:23;;;;;;;;;;;19.10;89.40;;;;;;4347576;32;42611;-86
2021/08/16 08:19:56;;;;;;;;;;;19.10;89.50;;;;;;4373604;32;20013;-86
2021/08/16 08:22:24;;;;;;;;;;;19.10;89.50;;;;;;4361209;32;43799;-88
2021/08/16 08:24:58;;;;;;;;;;;19.10;89.50;;;;;;4360600;32;44213;-86
2021/08/16 08:27:25;;;;;;;;;;;19.10;89.50;;;;;;4347686;32;45091;-88
2021/08/16 08:29:55;;;;;;;;;;;19.10;89.50;;;;;;4371840;32;44195;-86
2021/08/16 08:32:25;;;;;;;;;;;19.10;89.50;;;;;;4347618;32;43225;-84
2021/08/16 08:35:03;;;;;;;;;;;19.10;89.50;;;;;;4347459;32;43097;-87
2021/08/16 08:37:36;;;;;;;;;;;19.10;89.60;;;;;;4347909;32;43838;-86
2021/08/16 08:40:08;;;;;;;;;;;19.20;89.80;;;;;;4360855;32;43579;-83
2021/08/16 08:42:37;;;;;;;;;;;19.10;89.70;;;;;;4347687;32;44419;-85
2021/08/16 08:45:05;;;;;;;;;;;19.20;89.70;;;;;;4360906;32;44132;-87
2021/08/16 08:47:35;;;;;;;;;;;19.10;89.70;;;;;;4347209;32;43310;-88
2021/08/16 08:50:02;;;;;;;;;;;19.10;89.70;;;;;;4348008;32;20004;-81
2021/08/16 08:52:33;;;;;;;;;;;19.10;89.80;;;;;;4371527;32;44865;-86
2021/08/16 08:55:02;;;;;;;;;;;19.10;89.90;;;;;;4360355;32;44280;-86
2021/08/16 08:57:54;;;;;;;;;;;19.20;90.00;;;;;;4369825;32;43279;-87
2021/08/16 09:00:21;;;;;;;;;;;19.10;90.00;;;;;;4346842;32;43269;-88
2021/08/16 09:02:55;;;;;;;;;;;19.20;90.00;;;;;;4360051;32;43195;-87
2021/08/16 09:05:25;;;;;;;;;;;19.20;90.00;;;;;;4360762;32;43247;-85
2021/08/16 09:07:57;;;;;;;;;;;19.20;89.90;;;;;;4371333;32;42771;-87
2021/08/16 09:10:31;;;;;;;;;;;19.20;89.90;;;;;;4346794;32;43846;-88
2021/08/16 09:13:04;;;;;;;;;;;19.20;90.30;;;;;;4346743;32;44174;-88
2021/08/16 09:15:31;;;;;;;;;;;19.20;89.90;;;;;;4360101;32;42741;-83
2021/08/16 09:18:07;;;;;;;;;;;19.20;89.80;;;;;;4371605;32;42268;-88
2021/08/16 09:20:35;;;;;;;;;;;19.20;90.00;;;;;;4372490;32;20035;-87
2021/08/16 09:23:14;;;;;;;;;;;19.20;90.30;;;;;;4371508;32;44667;-87
2021/08/16 09:25:53;;;;;;;;;;;19.20;89.90;;;;;;4371043;32;44057;-88
2021/08/16 09:28:31;;;;;;;;;;;19.20;89.80;;;;;;4360483;32;43482;-88
2021/08/16 09:31:16;;;;;;;;;;;19.20;89.90;;;;;;4347111;32;45677;-87
2021/08/16 09:33:56;;;;;;;;;;;19.20;89.80;;;;;;4359775;32;44992;-89
2021/08/16 09:36:34;;;;;;;;;;;19.30;89.90;;;;;;4347176;32;45655;-87
2021/08/16 09:39:01;;;;;;;;;;;19.30;90.00;;;;;;4371627;32;43485;-88
2021/08/16 09:41:31;;;;;;;;;;;19.30;89.90;;;;;;4360101;32;44374;-87
2021/08/16 09:44:09;;;;;;;;;;;19.30;90.00;;;;;;4371331;32;42838;-85
2021/08/16 09:46:42;;;;;;;;;;;19.30;90.00;;;;;;4347020;32;43133;-86
2021/08/16 09:49:30;;;;;;;;;;;19.30;90.00;;;;;;4371015;32;44321;-86
2021/08/16 09:52:05;;;;;;;;;;;19.30;90.00;;;;;;4346814;33;20381;-88
2021/08/16 09:54:38;;;;;;;;;;;19.30;90.00;;;;;;4359600;33;43068;-87
2021/08/16 09:57:13;;;;;;;;;;;19.30;90.00;;;;;;4370881;32;42648;-83
2021/08/16 09:59:41;;;;;;;;;;;19.30;90.00;;;;;;4360386;33;43235;-86
2021/08/16 10:02:10;;;;;;;;;;;19.30;90.00;;;;;;4359507;33;43770;-86
2021/08/16 10:04:37;;;;;;;;;;;19.40;90.00;;;;;;4371232;32;43378;-88
2021/08/16 10:07:10;;;;;;;;;;;19.30;90.00;;;;;;4346330;33;42508;-88
2021/08/16 10:09:50;;;;;;;;;;;19.40;90.00;;;;;;4370351;32;45073;-85
2021/08/16 10:12:20;;;;;;;;;;;19.40;90.10;;;;;;4346569;33;44661;-84
2021/08/16 10:14:49;;;;;;;;;;;19.40;90.00;;;;;;4370787;32;43906;-86
2021/08/16 10:17:49;;;;;;;;;;;19.40;90.10;;;;;;4346981;33;45711;-87
2021/08/16 10:20:32;;;;;;;;;;;19.40;90.00;;;;;;4356082;33;42511;-86
2021/08/16 10:23:19;;;;;;;;;;;19.40;90.10;;;;;;4347584;33;20001;-86
2021/08/16 10:25:53;;;;;;;;;;;19.40;90.10;;;;;;4346595;33;44180;-83
2021/08/16 10:28:30;;;;;;;;;;;19.40;90.20;;;;;;4359951;33;44538;-84
2021/08/16 10:30:57;;;;;;;;;;;19.40;90.30;;;;;;4359348;33;42943;-83
2021/08/16 10:33:25;;;;;;;;;;;19.50;90.20;;;;;;4346446;33;44540;-86
2021/08/16 10:35:53;;;;;;;;;;;19.40;90.20;;;;;;4346650;33;44190;-86
2021/08/16 10:38:46;;;;;;;;;;;19.40;90.10;;;;;;4348283;33;45739;-84
2021/08/16 10:41:30;;;;;;;;;;;19.40;90.10;;;;;;4370826;32;43524;-84
2021/08/16 10:44:10;;;;;;;;;;;19.40;90.10;;;;;;4359779;33;44177;-87
2021/08/16 10:46:47;;;;;;;;;;;19.40;90.10;;;;;;4346378;33;46065;-86
2021/08/16 10:49:35;;;;;;;;;;;19.30;90.10;;;;;;4370944;32;43969;-85
2021/08/16 10:52:19;;;;;;;;;;;19.30;90.10;;;;;;4346473;33;43944;-85
2021/08/16 10:54:58;;;;;;;;;;;19.20;90.20;;;;;;4347452;33;20058;-85
2021/08/16 10:57:35;;;;;;;;;;;19.20;90.20;;;;;;4359236;33;43769;-84
2021/08/16 11:00:18;;;;;;;;;;;19.20;90.30;;;;;;4346424;33;42638;-86
2021/08/16 11:02:58;;;;;;;;;;;19.20;90.30;;;;;;4345674;32;44605;-87
2021/08/16 11:05:29;;;;;;;;;;;19.20;90.40;;;;;;4374116;32;42677;-85
2021/08/16 11:08:07;;;;;;;;;;;19.10;90.40;;;;;;4348484;32;42932;-86
2021/08/16 11:10:49;;;;;;;;;;;19.20;90.40;;;;;;4373078;32;42321;-86
2021/08/16 11:13:25;;;;;;;;;;;19.20;90.50;;;;;;4348313;32;45686;-88
2021/08/16 11:16:08;;;;;;;;;;;19.20;90.50;;;;;;4362061;32;46262;-87
2021/08/16 11:19:00;;;;;;;;;;;19.20;90.50;;;;;;4348473;32;45576;-86
2021/08/16 11:21:36;;;;;;;;;;;19.20;90.50;;;;;;4348242;32;44014;-86
2021/08/16 11:24:14;;;;;;;;;;;19.20;90.50;;;;;;4348182;32;45237;-86
2021/08/16 11:26:55;;;;;;;;;;;19.20;90.50;;;;;;4348992;32;19997;-86
2021/08/16 11:29:30;;;;;;;;;;;19.20;90.50;;;;;;4347995;32;43665;-86
2021/08/16 11:32:09;;;;;;;;;;;19.20;90.40;;;;;;4373242;32;46164;-86
2021/08/16 11:34:50;;;;;;;;;;;19.20;90.40;;;;;;4348457;32;43044;-87
2021/08/16 11:37:26;;;;;;;;;;;19.20;90.40;;;;;;4361888;32;44426;-87
2021/08/16 11:39:59;;;;;;;;;;;19.20;90.40;;;;;;4361807;32;43076;-87
2021/08/16 11:42:51;;;;;;;;;;;19.20;90.40;;;;;;4371345;32;44391;-86
2021/08/16 11:45:19;;;;;;;;;;;19.20;90.40;;;;;;4373685;32;44010;-87
2021/08/16 11:47:52;;;;;;;;;;;19.20;90.30;;;;;;4373035;32;44606;-86
2021/08/16 11:50:29;;;;;;;;;;;19.20;90.30;;;;;;4348286;32;45982;-88
2021/08/16 11:53:04;;;;;;;;;;;19.20;90.20;;;;;;4372832;32;44740;-86
2021/08/16 11:55:37;;;;;;;;;;;19.20;90.10;;;;;;4348326;32;44703;-87
2021/08/16 11:58:15;;;;;;;;;;;19.20;90.10;;;;;;4362231;32;19994;-87
2021/08/16 12:00:48;;;;;;;;;;;19.20;89.80;;;;;;4348181;32;44197;-87
2021/08/16 12:03:24;;;;;;;;;;;19.20;89.40;;;;;;4361294;32;43719;-88
2021/08/16 12:05:57;;;;;;;;;;;19.20;89.40;;;;;;4347800;32;43294;-88
2021/08/16 12:08:24;;;;;;;;;;;19.20;89.30;;;;;;4361279;32;43384;-88
2021/08/16 12:10:57;;;;;;;;;;;19.10;89.30;;;;;;4347662;32;44704;-87
2021/08/16 12:13:24;;;;;;;;;;;19.10;89.10;;;;;;4347878;32;45644;-88
2021/08/16 12:15:59;;;;;;;;;;;19.10;89.10;;;;;;4361311;32;42677;-87
2021/08/16 12:18:34;;;;;;;;;;;19.10;89.30;;;;;;4361225;32;44911;-87
2021/08/16 12:21:12;;;;;;;;;;;19.10;89.10;;;;;;4372136;32;43489;-87
2021/08/16 12:23:51;;;;;;;;;;;19.10;89.10;;;;;;4361355;32;43083;-87
2021/08/16 12:26:30;;;;;;;;;;;19.10;89.10;;;;;;4360907;32;43830;-87
2021/08/16 12:28:57;;;;;;;;;;;19.10;89.10;;;;;;4347853;32;43099;-86
2021/08/16 12:31:32;;;;;;;;;;;19.10;89.10;;;;;;4347379;32;43284;-87
2021/08/16 12:34:07;;;;;;;;;;;19.10;89.00;;;;;;4360782;32;42927;-87
2021/08/16 12:36:43;;;;;;;;;;;19.10;88.80;;;;;;4361102;32;44119;-85
2021/08/16 12:39:14;;;;;;;;;;;19.10;88.80;;;;;;4347611;32;44182;-87
2021/08/16 12:42:06;;;;;;;;;;;19.10;88.50;;;;;;4348732;32;45718;-87
2021/08/16 12:44:59;;;;;;;;;;;19.10;88.50;;;;;;4371839;32;43990;-89
2021/08/16 12:47:39;;;;;;;;;;;19.10;88.20;;;;;;4347854;32;45707;-88
2021/08/16 12:50:13;;;;;;;;;;;19.10;88.10;;;;;;4360745;32;44866;-88
2021/08/16 12:52:43;;;;;;;;;;;19.10;88.10;;;;;;4360501;32;44911;-89
2021/08/16 12:55:17;;;;;;;;;;;19.10;87.70;;;;;;4372440;32;43277;-90
2021/08/16 12:57:49;;;;;;;;;;;19.10;87.60;;;;;;4347486;32;43714;-89
2021/08/16 13:00:23;;;;;;;;;;;19.10;87.60;;;;;;4360633;32;45737;-86
2021/08/16 13:03:02;;;;;;;;;;;19.00;87.90;;;;;;4344534;33;45589;-87
2021/08/16 13:05:35;;;;;;;;;;;19.00;87.70;;;;;;4357044;32;44212;-89
2021/08/16 13:08:09;;;;;;;;;;;19.00;87.40;;;;;;4344595;33;44369;-87
2021/08/16 13:10:44;;;;;;;;;;;19.00;87.40;;;;;;4356394;32;43937;-88
2021/08/16 13:13:20;;;;;;;;;;;19.00;87.40;;;;;;4356850;32;44631;-90
2021/08/16 13:15:53;;;;;;;;;;;19.00;87.50;;;;;;4344665;33;44034;-90
2021/08/16 13:18:26;;;;;;;;;;;19.00;87.50;;;;;;4344724;33;45523;-88
2021/08/16 13:20:58;;;;;;;;;;;19.00;87.40;;;;;;4345469;33;44767;-90
2021/08/16 13:23:25;;;;;;;;;;;19.00;87.50;;;;;;4356833;32;43184;-89
2021/08/16 13:25:55;;;;;;;;;;;19.00;87.20;;;;;;4344624;32;44446;-89
2021/08/16 13:28:24;;;;;;;;;;;19.00;87.30;;;;;;4345019;33;45733;-87
2021/08/16 13:30:57;;;;;;;;;;;19.00;87.30;;;;;;4345327;33;19993;-89
2021/08/16 13:33:24;;;;;;;;;;;19.10;87.50;;;;;;4345614;33;43188;-88
2021/08/16 13:35:59;;;;;;;;;;;19.10;87.30;;;;;;4344480;33;43398;-89
2021/08/16 13:38:32;;;;;;;;;;;19.10;87.20;;;;;;4356355;32;41966;-89
2021/08/16 13:41:05;;;;;;;;;;;19.10;87.30;;;;;;4345468;33;44664;-87
2021/08/16 13:43:33;;;;;;;;;;;19.10;86.90;;;;;;4356155;32;42934;-88
2021/08/16 13:46:00;;;;;;;;;;;19.10;87.00;;;;;;4345409;33;44160;-88
2021/08/16 13:48:30;;;;;;;;;;;19.10;86.60;;;;;;4344961;33;43490;-88
2021/08/16 13:51:00;;;;;;;;;;;19.10;86.60;;;;;;4343739;33;45537;-88
2021/08/16 13:53:35;;;;;;;;;;;19.10;86.70;;;;;;4344198;33;43861;-88
2021/08/16 13:56:05;;;;;;;;;;;19.10;86.70;;;;;;4356570;33;45071;-88
2021/08/16 13:58:44;;;;;;;;;;;19.10;87.00;;;;;;4356351;33;43527;-89
2021/08/16 14:01:21;;;;;;;;;;;19.10;86.80;;;;;;4356856;33;20032;-88
2021/08/16 14:04:01;;;;;;;;;;;19.10;86.70;;;;;;4345442;33;43954;-88
2021/08/16 14:06:39;;;;;;;;;;;19.10;86.50;;;;;;4356416;33;44185;-88
2021/08/16 14:09:30;;;;;;;;;;;19.10;86.80;;;;;;4354917;33;43413;-89
2021/08/16 14:12:09;;;;;;;;;;;19.10;86.90;;;;;;4355696;33;45184;-88
2021/08/16 14:14:44;;;;;;;;;;;19.10;86.60;;;;;;4344191;33;44627;-88
2021/08/16 14:17:14;;;;;;;;;;;19.10;86.40;;;;;;4356504;33;44685;-88
2021/08/16 14:19:50;;;;;;;;;;;19.10;86.60;;;;;;4344045;33;43954;-88
2021/08/16 14:22:23;;;;;;;;;;;19.10;86.40;;;;;;4356195;33;44992;-88
2021/08/16 14:24:56;;;;;;;;;;;19.10;86.40;;;;;;4344116;33;44908;-88
2021/08/16 14:27:29;;;;;;;;;;;19.10;86.20;;;;;;4355757;33;43986;-86
2021/08/16 14:29:59;;;;;;;;;;;19.10;85.90;;;;;;4343987;33;44810;-89
2021/08/16 14:32:33;;;;;;;;;;;19.10;85.90;;;;;;4357711;33;19993;-88
2021/08/16 14:35:04;;;;;;;;;;;19.10;85.60;;;;;;4345070;33;43092;-88
2021/08/16 14:37:44;;;;;;;;;;;19.00;85.70;;;;;;4346118;33;44828;-87
2021/08/16 14:40:13;;;;;;;;;;;19.10;85.70;;;;;;4347905;33;43325;-87
2021/08/16 14:42:40;;;;;;;;;;;19.10;85.70;;;;;;4359020;32;42755;-88
2021/08/16 14:45:11;;;;;;;;;;;19.00;85.20;;;;;;4346683;33;45727;-87